Time;durP1;ratioP1;P1;durP2;ratioP2;P2;SDS_P1;SDS_P2;PMS_P1;PMS_P2;Temp;Humidity;BMP_temperature;BMP_pressure;BME280_temperature;BME280_humidity;BME280_pressure;Samples;Min_cycle;Max_cycle;Signal;HPM_P1;HPM_P2
2021/05/21 00:02:22;;;;;;;2.90;1.10;;;16.10;55.30;;;;;;5096232;28;20443;-70
2021/05/21 00:04:48;;;;;;;0.73;0.73;;;16.10;55.50;;;;;;5096068;28;20491;-70
2021/05/21 00:07:14;;;;;;;2.17;0.97;;;16.10;55.50;;;;;;5095836;28;20937;-71
2021/05/21 00:09:41;;;;;;;4.43;0.90;;;16.00;55.50;;;;;;5096090;28;20846;-71
2021/05/21 00:12:07;;;;;;;3.43;0.90;;;16.00;55.60;;;;;;5095930;28;20451;-71
2021/05/21 00:14:34;;;;;;;1.27;0.80;;;16.10;56.00;;;;;;5095909;28;20470;-71
2021/05/21 00:17:01;;;;;;;2.37;0.80;;;16.10;55.90;;;;;;5095444;28;20847;-71
2021/05/21 00:19:27;;;;;;;4.17;0.90;;;16.10;55.80;;;;;;5095585;28;20941;-71
2021/05/21 00:21:54;;;;;;;1.30;0.80;;;16.10;56.00;;;;;;5095811;28;20435;-71
2021/05/21 00:24:20;;;;;;;1.07;0.80;;;16.10;56.50;;;;;;5095717;28;20471;-71
2021/05/21 00:26:47;;;;;;;2.90;0.97;;;16.10;56.30;;;;;;5095738;28;20443;-71
2021/05/21 00:29:13;;;;;;;1.00;0.70;;;16.10;56.20;;;;;;5095660;28;20452;-71
2021/05/21 00:31:40;;;;;;;5.20;2.70;;;16.10;56.50;;;;;;5095638;28;20849;-71
2021/05/21 00:34:07;;;;;;;2.93;0.80;;;16.10;56.20;;;;;;5095442;28;20487;-71
2021/05/21 00:36:33;;;;;;;1.70;0.67;;;16.10;56.10;;;;;;5095727;28;20455;-71
2021/05/21 00:38:59;;;;;;;2.47;0.90;;;16.10;56.30;;;;;;5095250;28;20455;-71
2021/05/21 00:41:26;;;;;;;2.10;1.10;;;16.10;56.30;;;;;;5095724;28;20481;-71
2021/05/21 00:43:54;;;;;;;0.87;0.60;;;16.00;56.20;;;;;;5095468;28;20444;-71
2021/05/21 00:46:20;;;;;;;2.00;0.93;;;16.00;56.50;;;;;;5095695;28;20444;-71
2021/05/21 00:48:47;;;;;;;2.83;1.03;;;15.90;56.20;;;;;;5095530;28;20526;-70
2021/05/21 00:51:14;;;;;;;2.30;0.90;;;15.90;56.60;;;;;;5095501;28;20795;-70
2021/05/21 00:53:40;;;;;;;3.07;1.20;;;15.90;56.90;;;;;;5095242;28;20479;-70
2021/05/21 00:56:08;;;;;;;9.10;1.03;;;15.90;57.10;;;;;;5095245;28;20452;-70
2021/05/21 00:58:36;;;;;;;4.23;1.23;;;15.90;57.00;;;;;;5095516;28;20455;-70
2021/05/21 01:01:03;;;;;;;1.90;1.20;;;15.80;56.70;;;;;;5095229;28;20444;-70
2021/05/21 01:03:30;;;;;;;2.50;0.90;;;15.80;57.10;;;;;;5095107;28;20448;-70
2021/05/21 01:05:56;;;;;;;7.40;1.07;;;15.80;56.80;;;;;;5095524;28;20486;-70
2021/05/21 01:08:23;;;;;;;3.63;0.80;;;15.80;57.60;;;;;;5095546;28;20452;-70
2021/05/21 01:10:49;;;;;;;3.60;0.63;;;15.80;56.90;;;;;;5095053;28;20806;-70
2021/05/21 01:13:15;;;;;;;2.40;1.00;;;15.80;57.10;;;;;;5094757;28;20471;-70
2021/05/21 01:15:43;;;;;;;1.00;0.80;;;15.70;57.90;;;;;;5094547;28;20479;-70
2021/05/21 01:18:11;;;;;;;2.20;0.60;;;15.80;57.60;;;;;;5094889;28;20435;-70
2021/05/21 01:20:39;;;;;;;4.43;0.83;;;15.70;57.00;;;;;;5094692;28;20492;-70
2021/05/21 01:23:06;;;;;;;9.37;1.63;;;15.70;57.00;;;;;;5094652;28;20458;-70
2021/05/21 01:25:32;;;;;;;2.13;0.70;;;15.70;57.10;;;;;;5094178;28;20969;-70
2021/05/21 01:27:59;;;;;;;5.93;0.70;;;15.70;57.30;;;;;;5094540;28;20444;-70
2021/05/21 01:30:26;;;;;;;1.97;0.67;;;15.70;57.30;;;;;;5094557;28;20855;-70
2021/05/21 01:32:55;;;;;;;1.80;1.20;;;15.70;57.30;;;;;;5094392;28;20486;-70
2021/05/21 01:35:22;;;;;;;4.70;0.70;;;15.70;57.20;;;;;;5094347;28;20483;-70
2021/05/21 01:37:50;;;;;;;2.90;0.90;;;15.70;57.50;;;;;;5094382;28;20455;-70
2021/05/21 01:40:17;;;;;;;0.70;0.60;;;15.70;57.10;;;;;;5094030;28;20965;-70
2021/05/21 01:42:44;;;;;;;1.63;0.80;;;15.70;57.30;;;;;;5094306;28;20455;-70
2021/05/21 01:45:11;;;;;;;1.93;0.80;;;15.70;56.90;;;;;;5094189;28;20468;-70
2021/05/21 01:47:39;;;;;;;1.77;0.67;;;15.60;57.40;;;;;;5094204;28;20493;-70
2021/05/21 01:50:10;;;;;;;1.53;0.70;;;15.70;57.60;;;;;;5094123;28;20456;-70
2021/05/21 01:52:37;;;;;;;2.43;0.83;;;15.70;57.50;;;;;;5094077;28;20551;-70
2021/05/21 01:55:05;;;;;;;2.13;0.60;;;15.70;57.80;;;;;;5094031;28;20468;-70
2021/05/21 01:57:32;;;;;;;0.90;0.70;;;15.70;57.80;;;;;;5094100;28;20458;-70
2021/05/21 01:59:58;;;;;;;2.10;0.80;;;15.70;58.20;;;;;;5093975;28;20508;-70
2021/05/21 02:02:24;;;;;;;4.83;0.77;;;15.70;57.60;;;;;;5094026;28;20428;-70
2021/05/21 02:04:51;;;;;;;1.73;0.97;;;15.60;58.10;;;;;;5093851;28;20460;-70
2021/05/21 02:07:18;;;;;;;1.60;0.80;;;15.50;58.20;;;;;;5093917;28;20448;-70
2021/05/21 02:09:52;;;;;;;1.60;0.57;;;15.60;58.20;;;;;;5093825;28;20460;-70
2021/05/21 02:12:19;;;;;;;2.67;1.00;;;15.60;58.10;;;;;;5093794;28;20428;-70
2021/05/21 02:14:45;;;;;;;1.87;0.83;;;15.60;58.20;;;;;;5093125;28;20989;-70
2021/05/21 02:17:11;;;;;;;1.77;0.90;;;15.60;58.50;;;;;;5093359;28;20456;-70
2021/05/21 02:19:37;;;;;;;6.03;0.90;;;15.60;58.00;;;;;;5093418;28;20958;-71
2021/05/21 02:22:06;;;;;;;1.23;0.80;;;15.60;58.40;;;;;;5093702;28;20447;-71
2021/05/21 02:24:32;;;;;;;2.27;0.70;;;15.50;58.50;;;;;;5093338;28;20836;-70
2021/05/21 02:26:58;;;;;;;3.03;0.70;;;15.50;58.70;;;;;;5093676;28;20471;-70
2021/05/21 02:29:25;;;;;;;1.37;0.60;;;15.50;58.30;;;;;;5093320;28;20953;-70
2021/05/21 02:31:52;;;;;;;2.83;0.97;;;15.40;58.60;;;;;;5093640;28;20448;-70
2021/05/21 02:34:18;;;;;;;4.80;1.20;;;15.40;58.90;;;;;;5093401;28;20487;-70
2021/05/21 02:36:45;;;;;;;1.10;0.60;;;15.40;58.60;;;;;;5093556;28;20459;-70
2021/05/21 02:39:11;;;;;;;1.43;0.50;;;15.30;58.80;;;;;;5093233;28;20961;-70
2021/05/21 02:41:37;;;;;;;2.77;1.10;;;15.30;59.20;;;;;;5094105;28;20447;-70
2021/05/21 02:44:04;;;;;;;2.63;0.80;;;15.20;58.60;;;;;;5093069;28;20991;-70
2021/05/21 02:46:31;;;;;;;1.23;0.77;;;15.10;58.70;;;;;;5093510;28;20452;-70
2021/05/21 02:48:57;;;;;;;4.40;0.90;;;15.10;59.40;;;;;;5093413;28;20456;-70
2021/05/21 02:51:24;;;;;;;1.50;0.80;;;15.10;59.30;;;;;;5093443;28;20498;-70
2021/05/21 02:53:50;;;;;;;2.90;0.93;;;15.10;59.30;;;;;;5093287;28;20475;-70
2021/05/21 02:56:16;;;;;;;2.83;1.00;;;15.10;59.40;;;;;;5093360;28;20471;-70
2021/05/21 02:58:42;;;;;;;2.93;1.20;;;15.10;59.70;;;;;;5093327;28;20448;-70
2021/05/21 03:01:09;;;;;;;3.17;1.10;;;15.10;59.30;;;;;;5093328;28;20446;-70
2021/05/21 03:03:36;;;;;;;2.53;0.97;;;15.10;59.90;;;;;;5093297;28;20444;-70
2021/05/21 03:06:03;;;;;;;5.13;0.73;;;15.10;60.10;;;;;;5092931;28;20463;-70
2021/05/21 03:08:30;;;;;;;2.50;1.00;;;15.10;59.70;;;;;;5093258;28;20566;-70
2021/05/21 03:10:56;;;;;;;2.50;0.80;;;15.00;60.50;;;;;;5093284;28;20428;-70
2021/05/21 03:13:22;;;;;;;5.30;1.13;;;15.00;60.90;;;;;;5093171;28;20482;-70
2021/05/21 03:15:49;;;;;;;2.37;1.20;;;14.90;60.30;;;;;;5092817;28;20491;-70
2021/05/21 03:18:18;;;;;;;1.20;0.80;;;14.90;60.70;;;;;;5093176;28;20447;-70
2021/05/21 03:20:45;;;;;;;1.33;0.80;;;14.90;60.70;;;;;;5093169;28;20538;-70
2021/05/21 03:23:12;;;;;;;7.03;0.93;;;14.90;60.80;;;;;;5093153;28;20817;-70
2021/05/21 03:25:40;;;;;;;3.43;0.90;;;14.80;61.50;;;;;;5092998;28;20499;-70
2021/05/21 03:28:07;;;;;;;1.63;0.83;;;14.80;61.80;;;;;;5095051;28;20455;-70
2021/05/21 03:30:34;;;;;;;2.73;0.80;;;14.80;61.00;;;;;;5096869;28;20452;-70
2021/05/21 03:33:00;;;;;;;2.20;0.93;;;14.80;61.20;;;;;;5096432;28;20988;-71
2021/05/21 03:35:27;;;;;;;4.00;1.20;;;14.80;61.70;;;;;;5096681;28;20463;-70
2021/05/21 03:37:54;;;;;;;3.90;1.20;;;14.80;61.70;;;;;;5096715;28;20452;-70
2021/05/21 03:40:20;;;;;;;1.60;0.80;;;14.80;62.00;;;;;;5096379;28;20812;-70
2021/05/21 03:42:48;;;;;;;1.50;0.70;;;14.70;62.10;;;;;;5096920;28;20435;-70
2021/05/21 03:45:15;;;;;;;5.40;1.50;;;14.70;62.60;;;;;;5096503;28;20554;-70
2021/05/21 03:47:41;;;;;;;2.13;0.90;;;14.70;62.00;;;;;;5096482;28;20467;-70
2021/05/21 03:50:10;;;;;;;2.47;1.03;;;14.70;62.30;;;;;;5096450;28;20518;-70
2021/05/21 03:52:36;;;;;;;2.83;1.10;;;14.70;62.50;;;;;;5096330;28;20476;-70
2021/05/21 03:55:04;;;;;;;2.30;1.23;;;14.70;62.30;;;;;;5096276;28;20468;-70
2021/05/21 03:57:31;;;;;;;1.87;1.00;;;14.70;62.20;;;;;;5096324;28;20455;-70
2021/05/21 03:59:58;;;;;;;3.43;1.00;;;14.70;62.60;;;;;;5096294;28;20428;-70
2021/05/21 04:02:24;;;;;;;2.40;0.90;;;14.80;62.60;;;;;;5096222;28;20474;-70
2021/05/21 04:04:51;;;;;;;2.23;0.90;;;14.80;62.60;;;;;;5095781;28;20468;-70
2021/05/21 04:07:18;;;;;;;1.70;0.80;;;14.80;62.60;;;;;;5096138;28;20458;-70
2021/05/21 04:09:44;;;;;;;2.87;0.90;;;14.80;62.70;;;;;;5096090;28;20444;-70
2021/05/21 04:12:11;;;;;;;2.20;1.00;;;14.80;62.90;;;;;;5095993;28;20444;-70
2021/05/21 04:14:37;;;;;;;1.43;1.00;;;14.80;63.40;;;;;;5095953;28;20574;-70
2021/05/21 04:17:04;;;;;;;3.87;1.13;;;14.80;63.10;;;;;;5095617;28;20478;-70
2021/05/21 04:19:30;;;;;;;2.53;0.90;;;14.80;63.50;;;;;;5095998;28;20443;-70
2021/05/21 04:21:56;;;;;;;2.80;1.00;;;14.80;63.50;;;;;;5097745;28;20440;-70
2021/05/21 04:24:22;;;;;;;1.77;0.70;;;14.80;63.00;;;;;;5097571;28;20550;-70
2021/05/21 04:26:49;;;;;;;5.83;0.90;;;14.80;63.70;;;;;;5095484;28;20448;-70
2021/05/21 04:29:16;;;;;;;4.23;1.00;;;14.70;63.80;;;;;;5095786;28;20452;-70
2021/05/21 04:31:42;;;;;;;1.90;0.77;;;14.70;63.90;;;;;;5095859;28;20436;-70
2021/05/21 04:34:08;;;;;;;2.63;0.90;;;14.70;64.00;;;;;;5095238;28;20985;-69
2021/05/21 04:36:34;;;;;;;4.10;0.83;;;14.70;63.80;;;;;;5095610;28;20443;-69
2021/05/21 04:39:01;;;;;;;3.17;1.20;;;14.70;63.70;;;;;;5094955;28;20894;-71
2021/05/21 04:41:27;;;;;;;1.70;1.00;;;14.60;63.80;;;;;;5095598;28;20450;-70
2021/05/21 04:43:54;;;;;;;5.73;0.90;;;14.60;64.50;;;;;;5095470;28;20444;-70
2021/05/21 04:46:21;;;;;;;2.03;1.20;;;14.60;64.30;;;;;;5095350;28;20501;-70
2021/05/21 04:48:47;;;;;;;2.10;0.80;;;14.60;64.90;;;;;;5095456;28;20451;-70
2021/05/21 04:51:13;;;;;;;4.83;1.23;;;14.60;64.50;;;;;;5095291;28;20455;-70
2021/05/21 04:53:41;;;;;;;2.40;0.70;;;14.60;65.00;;;;;;5095197;28;20490;-70
2021/05/21 04:56:07;;;;;;;1.67;1.00;;;14.60;64.70;;;;;;5094950;28;20934;-70
2021/05/21 04:58:34;;;;;;;7.00;1.30;;;14.70;65.00;;;;;;5095039;28;20945;-70
2021/05/21 05:01:00;;;;;;;2.00;1.13;;;14.70;64.90;;;;;;5095103;28;20454;-70
2021/05/21 05:03:29;;;;;;;4.80;1.40;;;14.60;65.20;;;;;;5095027;28;20439;-70
2021/05/21 05:05:55;;;;;;;2.20;0.73;;;14.60;65.70;;;;;;5095489;28;20467;-70
2021/05/21 05:08:22;;;;;;;2.00;1.00;;;14.70;65.80;;;;;;5094970;28;20539;-70
2021/05/21 05:10:49;;;;;;;2.43;0.90;;;14.70;65.90;;;;;;5094974;28;20435;-70
2021/05/21 05:13:15;;;;;;;1.33;0.93;;;14.80;65.80;;;;;;5094484;28;20476;-70
2021/05/21 05:15:42;;;;;;;2.83;1.23;;;14.80;65.70;;;;;;5094650;28;20471;-70
2021/05/21 05:18:09;;;;;;;6.10;1.10;;;14.90;65.60;;;;;;5094398;28;21111;-70
2021/05/21 05:20:36;;;;;;;3.73;1.00;;;15.10;65.40;;;;;;5094477;28;20483;-70
2021/05/21 05:23:03;;;;;;;4.40;1.10;;;15.20;65.40;;;;;;5094221;28;20974;-70
2021/05/21 05:25:30;;;;;;;2.40;1.13;;;15.30;65.50;;;;;;5094563;28;20472;-70
2021/05/21 05:27:57;;;;;;;2.10;1.13;;;15.30;64.60;;;;;;5094541;28;20447;-70
2021/05/21 05:30:24;;;;;;;2.03;1.10;;;15.30;64.10;;;;;;5094685;28;20500;-71
2021/05/21 05:32:51;;;;;;;6.30;1.23;;;15.40;64.20;;;;;;5094454;28;20484;-71
2021/05/21 05:35:17;;;;;;;1.97;1.17;;;15.40;64.10;;;;;;5094402;28;20471;-71
2021/05/21 05:37:44;;;;;;;2.10;1.03;;;15.40;64.10;;;;;;5094443;28;20447;-72
2021/05/21 05:40:11;;;;;;;7.20;1.60;;;15.40;64.30;;;;;;5094309;28;20444;-72
2021/05/21 05:42:37;;;;;;;2.67;1.70;;;15.50;65.10;;;;;;5094418;28;20456;-72
2021/05/21 05:45:04;;;;;;;4.93;1.30;;;15.50;65.00;;;;;;5094205;28;20459;-70
2021/05/21 05:47:30;;;;;;;3.50;1.30;;;15.50;64.70;;;;;;5094251;28;20439;-76
2021/05/21 05:49:57;;;;;;;2.23;1.10;;;15.50;64.80;;;;;;5093417;28;20448;-70
2021/05/21 05:52:23;;;;;;;3.87;1.20;;;15.50;64.40;;;;;;5094145;28;20439;-70
2021/05/21 05:54:51;;;;;;;8.67;1.90;;;15.60;64.20;;;;;;5094087;28;20523;-70
2021/05/21 05:57:17;;;;;;;4.00;1.37;;;15.50;63.10;;;;;;5094101;28;20498;-70
2021/05/21 05:59:44;;;;;;;3.50;1.50;;;15.30;63.00;;;;;;5094104;28;20530;-70
2021/05/21 06:02:10;;;;;;;3.27;1.20;;;15.30;63.80;;;;;;5094043;28;20492;-70
2021/05/21 06:04:36;;;;;;;7.03;1.67;;;15.30;64.90;;;;;;5093848;28;20520;-69
2021/05/21 06:07:02;;;;;;;2.90;0.93;;;15.30;64.70;;;;;;5093913;28;20443;-70
2021/05/21 06:09:28;;;;;;;2.67;1.40;;;15.20;63.90;;;;;;5094028;28;20454;-70
2021/05/21 06:11:56;;;;;;;7.23;1.83;;;15.20;64.50;;;;;;5093837;28;20461;-70
2021/05/21 06:14:22;;;;;;;4.70;1.50;;;15.30;64.90;;;;;;5093676;28;20487;-70
2021/05/21 06:16:49;;;;;;;7.20;1.57;;;15.40;64.60;;;;;;5093389;28;20463;-70
2021/05/21 06:19:15;;;;;;;6.10;1.63;;;15.50;64.60;;;;;;5093754;28;20448;-70
2021/05/21 06:21:41;;;;;;;3.13;1.20;;;15.80;64.00;;;;;;5094052;28;20447;-70
2021/05/21 06:24:09;;;;;;;3.13;1.40;;;15.90;63.00;;;;;;5093658;28;20463;-70
2021/05/21 06:26:38;;;;;;;6.80;1.77;;;15.90;62.70;;;;;;5093843;28;20444;-70
2021/05/21 06:29:05;;;;;;;6.20;1.43;;;15.70;61.10;;;;;;5093701;28;20536;-70
2021/05/21 06:31:31;;;;;;;11.40;1.70;;;15.70;62.40;;;;;;5093784;28;20423;-70
2021/05/21 06:33:57;;;;;;;11.23;2.53;;;15.60;62.10;;;;;;5093297;28;20992;-68
2021/05/21 06:36:25;;;;;;;8.13;1.80;;;15.60;63.30;;;;;;5094156;28;20447;-70
2021/05/21 06:38:51;;;;;;;9.33;2.17;;;15.70;62.40;;;;;;5093628;28;20442;-71
2021/05/21 06:41:18;;;;;;;10.10;1.13;;;15.70;60.90;;;;;;5093744;28;20443;-70
2021/05/21 06:43:44;;;;;;;5.00;1.50;;;15.70;61.40;;;;;;5093482;28;20440;-70
2021/05/21 06:46:11;;;;;;;10.73;1.60;;;15.80;61.90;;;;;;5093357;28;20513;-70
2021/05/21 06:48:38;;;;;;;7.30;1.50;;;15.80;61.00;;;;;;5093180;28;20450;-70
2021/05/21 06:51:07;;;;;;;6.07;1.90;;;15.90;60.90;;;;;;5093465;28;20527;-70
2021/05/21 06:53:34;;;;;;;13.30;2.27;;;15.70;60.20;;;;;;5093456;28;20471;-70
2021/05/21 06:56:00;;;;;;;21.00;2.47;;;15.70;60.50;;;;;;5093344;28;20452;-70
2021/05/21 06:58:27;;;;;;;11.97;1.90;;;15.70;60.10;;;;;;5093401;28;20428;-70
2021/05/21 07:00:54;;;;;;;8.30;2.80;;;15.60;60.60;;;;;;5093129;28;20962;-70
2021/05/21 07:03:25;;;;;;;8.43;1.70;;;15.50;59.80;;;;;;5097467;28;20440;-70
2021/05/21 07:05:51;;;;;;;9.33;1.80;;;15.50;60.20;;;;;;5097310;28;20495;-70
2021/05/21 07:08:17;;;;;;;8.37;1.93;;;15.40;60.20;;;;;;5097455;28;20427;-70
2021/05/21 07:10:44;;;;;;;16.47;2.30;;;15.30;60.80;;;;;;5097262;28;20797;-70
2021/05/21 07:13:10;;;;;;;14.83;2.27;;;15.30;60.20;;;;;;5097059;28;20479;-70
2021/05/21 07:15:37;;;;;;;13.23;2.50;;;15.30;60.10;;;;;;5096637;28;20877;-70
2021/05/21 07:18:05;;;;;;;13.07;2.60;;;15.30;59.90;;;;;;5097089;28;20447;-70
2021/05/21 07:20:32;;;;;;;17.80;2.57;;;15.20;59.80;;;;;;5097079;28;20447;-70
2021/05/21 07:22:59;;;;;;;17.63;3.03;;;15.20;58.70;;;;;;5097145;28;20497;-70
2021/05/21 07:25:26;;;;;;;15.43;2.83;;;15.30;59.10;;;;;;5097106;28;20467;-70
2021/05/21 07:27:52;;;;;;;9.90;2.20;;;15.10;58.80;;;;;;5096854;28;20495;-70
2021/05/21 07:30:18;;;;;;;12.13;1.60;;;15.10;59.20;;;;;;5097495;28;20455;-71
2021/05/21 07:32:45;;;;;;;14.00;2.17;;;15.20;58.60;;;;;;5098344;28;20444;-70
2021/05/21 07:35:12;;;;;;;17.87;2.80;;;15.40;58.50;;;;;;5098681;28;20474;-70
2021/05/21 07:37:39;;;;;;;8.77;2.30;;;15.70;59.00;;;;;;5096822;28;20926;-70
2021/05/21 07:40:07;;;;;;;26.13;2.53;;;15.90;56.50;;;;;;5096384;28;20448;-70
2021/05/21 07:42:33;;;;;;;14.83;2.90;;;16.10;57.10;;;;;;5096227;28;20447;-70
2021/05/21 07:45:00;;;;;;;13.57;2.67;;;16.10;54.30;;;;;;5096177;28;20464;-70
2021/05/21 07:47:26;;;;;;;18.10;2.80;;;16.00;53.80;;;;;;5096493;28;20444;-70
2021/05/21 07:49:52;;;;;;;13.73;2.50;;;15.90;55.20;;;;;;5096575;28;20435;-70
2021/05/21 07:52:18;;;;;;;23.07;3.60;;;15.80;54.60;;;;;;5096398;28;20448;-70
2021/05/21 07:54:45;;;;;;;12.70;3.40;;;15.50;55.20;;;;;;5096094;28;20475;-70
2021/05/21 07:57:12;;;;;;;18.40;3.50;;;15.60;55.10;;;;;;5096034;28;20439;-70
2021/05/21 07:59:38;;;;;;;20.90;3.20;;;15.70;55.00;;;;;;5096381;28;20440;-70
2021/05/21 08:02:04;;;;;;;18.13;3.43;;;15.90;55.70;;;;;;5096227;28;20455;-70
2021/05/21 08:04:31;;;;;;;31.73;4.03;;;16.20;56.20;;;;;;5096147;28;20496;-70
2021/05/21 08:06:57;;;;;;;15.60;2.30;;;16.60;56.60;;;;;;5096203;28;20432;-70
2021/05/21 08:09:23;;;;;;;8.03;2.40;;;16.90;53.00;;;;;;5095818;28;20990;-70
2021/05/21 08:11:50;;;;;;;9.63;2.80;;;17.10;52.00;;;;;;5096126;28;20436;-70
2021/05/21 08:14:17;;;;;;;17.07;3.40;;;17.00;51.50;;;;;;5095111;28;20483;-70
2021/05/21 08:16:43;;;;;;;12.73;2.10;;;16.90;51.30;;;;;;5095596;28;20946;-71
2021/05/21 08:19:09;;;;;;;16.10;2.40;;;16.60;49.30;;;;;;5095716;28;20526;-70
2021/05/21 08:21:36;;;;;;;10.80;2.97;;;16.30;49.80;;;;;;5095922;28;20817;-70
2021/05/21 08:24:03;;;;;;;12.17;3.10;;;16.30;51.00;;;;;;5095762;28;20424;-70
2021/05/21 08:26:30;;;;;;;23.93;4.03;;;16.50;50.60;;;;;;5095575;28;20933;-70
2021/05/21 08:28:58;;;;;;;21.90;3.90;;;16.80;51.50;;;;;;5095712;28;20428;-71
2021/05/21 08:31:25;;;;;;;18.80;2.73;;;17.20;49.90;;;;;;5095718;28;20450;-70
2021/05/21 08:33:52;;;;;;;21.47;3.20;;;17.40;49.10;;;;;;5095245;28;21049;-70
2021/05/21 08:36:20;;;;;;;19.27;2.90;;;17.50;49.70;;;;;;5095655;28;20428;-70
2021/05/21 08:38:47;;;;;;;26.90;3.50;;;17.70;47.30;;;;;;5095562;28;20487;-70
2021/05/21 08:41:15;;;;;;;31.80;4.90;;;17.80;47.40;;;;;;5095481;28;20447;-70
2021/05/21 08:43:46;;;;;;;24.90;3.17;;;17.80;44.90;;;;;;5095334;28;20475;-70
2021/05/21 08:46:13;;;;;;;26.27;5.20;;;17.30;44.40;;;;;;5095070;28;20454;-70
2021/05/21 08:48:40;;;;;;;22.43;3.53;;;17.20;45.80;;;;;;5095694;28;20501;-70
2021/05/21 08:51:08;;;;;;;13.23;3.00;;;17.30;46.90;;;;;;5095280;28;20816;-70
2021/05/21 08:53:35;;;;;;;16.10;4.37;;;17.40;45.40;;;;;;5095159;28;20486;-70
2021/05/21 08:56:01;;;;;;;14.40;2.67;;;17.30;45.70;;;;;;5095083;28;20468;-72
2021/05/21 08:58:27;;;;;;;16.50;4.17;;;17.20;43.90;;;;;;5095261;28;20432;-74
2021/05/21 09:00:55;;;;;;;20.47;3.43;;;17.40;45.80;;;;;;5095187;28;20440;-71
2021/05/21 09:03:24;;;;;;;18.47;2.90;;;17.60;46.90;;;;;;5095196;28;20470;-71
2021/05/21 09:06:12;;;;;;;23.37;3.73;;;17.80;44.70;;;;;;5094992;28;20464;-73
2021/05/21 09:08:40;;;;;;;30.40;4.77;;;17.90;43.70;;;;;;5095281;28;20429;-73
2021/05/21 09:11:21;;;;;;;22.83;3.10;;;17.80;42.10;;;;;;5094943;28;20447;-73
2021/05/21 09:13:50;;;;;;;11.90;2.10;;;18.00;41.20;;;;;;5094826;28;20464;-72
2021/05/21 09:16:21;;;;;;;17.40;2.77;;;18.30;42.50;;;;;;5094351;28;20984;-73
2021/05/21 09:19:05;;;;;;;15.03;2.40;;;18.30;39.40;;;;;;5094820;28;20858;-70
2021/05/21 09:21:58;;;;;;;13.90;2.50;;;18.40;40.20;;;;;;5095016;28;20459;-70
2021/05/21 09:24:29;;;;;;;30.67;4.50;;;18.30;40.30;;;;;;5091142;28;20480;-70
2021/05/21 09:26:56;;;;;;;26.30;3.40;;;18.50;41.60;;;;;;5094487;28;20428;-70
2021/05/21 09:29:39;;;;;;;7.80;2.03;;;18.80;42.30;;;;;;5094445;28;21047;-71
2021/05/21 09:32:20;;;;;;;15.70;3.30;;;18.90;40.50;;;;;;5094642;28;20454;-70
2021/05/21 09:34:58;;;;;;;17.93;3.03;;;18.80;41.90;;;;;;5094618;28;20487;-70
2021/05/21 09:37:26;;;;;;;16.00;3.33;;;18.30;41.50;;;;;;5094526;28;20423;-70
2021/05/21 09:40:11;;;;;;;18.13;3.20;;;17.90;42.90;;;;;;5094409;28;20455;-70
2021/05/21 09:42:53;;;;;;;13.40;2.77;;;17.70;43.20;;;;;;5094407;28;20448;-70
2021/05/21 09:45:25;;;;;;;15.37;2.83;;;17.60;44.50;;;;;;5094274;28;20471;-70
2021/05/21 09:47:54;;;;;;;12.43;2.80;;;17.60;44.60;;;;;;5094327;28;20489;-70
2021/05/21 09:50:37;;;;;;;15.07;2.70;;;17.60;44.40;;;;;;5094270;28;20814;-70
2021/05/21 09:53:07;;;;;;;20.97;4.83;;;17.40;45.10;;;;;;5094074;28;20451;-70
2021/05/21 09:55:36;;;;;;;9.17;2.73;;;17.60;43.80;;;;;;5094105;28;20467;-70
2021/05/21 09:58:03;;;;;;;10.93;2.33;;;18.00;43.40;;;;;;5094136;28;20446;-70
2021/05/21 10:00:29;;;;;;;11.20;2.23;;;18.40;41.70;;;;;;5094052;28;20428;-70
2021/05/21 10:02:56;;;;;;;12.17;2.90;;;18.50;42.70;;;;;;5094044;28;20451;-70
2021/05/21 10:05:24;;;;;;;28.60;4.70;;;18.40;41.70;;;;;;5093889;28;20467;-70
2021/05/21 10:07:52;;;;;;;16.83;3.43;;;17.90;43.50;;;;;;5094292;28;20515;-71
2021/05/21 10:10:21;;;;;;;21.23;3.43;;;17.90;43.80;;;;;;5093602;28;20947;-71
2021/05/21 10:12:49;;;;;;;14.57;2.83;;;18.00;43.10;;;;;;5093823;28;20455;-71
2021/05/21 10:15:15;;;;;;;12.60;3.27;;;18.10;42.60;;;;;;5093642;28;20490;-70
2021/05/21 10:17:44;;;;;;;14.17;2.63;;;18.10;43.60;;;;;;5093918;28;20424;-70
2021/05/21 10:20:13;;;;;;;18.10;2.80;;;17.90;43.00;;;;;;5093801;28;20436;-70
2021/05/21 10:22:45;;;;;;;18.07;2.90;;;17.80;43.40;;;;;;5093799;28;20428;-70
2021/05/21 10:25:15;;;;;;;16.53;3.43;;;17.80;42.30;;;;;;5093622;28;20467;-70
2021/05/21 10:27:46;;;;;;;19.47;3.30;;;17.80;43.10;;;;;;5093845;28;20454;-70
2021/05/21 10:30:15;;;;;;;9.80;2.50;;;17.70;43.30;;;;;;5093703;28;20462;-70
2021/05/21 10:32:41;;;;;;;16.77;3.53;;;17.50;42.60;;;;;;5093646;28;20430;-70
2021/05/21 10:35:16;;;;;;;23.93;3.57;;;17.70;44.40;;;;;;5093480;28;20488;-70
2021/05/21 10:37:45;;;;;;;14.70;2.40;;;18.00;43.50;;;;;;5093189;28;20428;-70
2021/05/21 10:40:13;;;;;;;12.50;2.90;;;18.00;42.00;;;;;;5093618;28;20501;-70
2021/05/21 10:42:46;;;;;;;10.07;1.87;;;18.30;42.40;;;;;;5093581;28;20447;-70
2021/05/21 10:45:15;;;;;;;6.47;1.83;;;19.10;42.30;;;;;;5093803;28;20459;-70
2021/05/21 10:47:42;;;;;;;26.20;3.60;;;19.60;39.40;;;;;;5093592;28;20447;-70
2021/05/21 10:50:16;;;;;;;26.80;4.20;;;19.20;37.30;;;;;;5093300;28;20428;-70
2021/05/21 10:52:59;;;;;;;26.23;3.10;;;19.00;38.70;;;;;;5093585;28;20524;-70
2021/05/21 10:55:53;;;;;;;30.67;3.50;;;18.90;38.30;;;;;;5093561;28;20467;-70
2021/05/21 10:58:28;;;;;;;15.13;5.70;;;19.00;40.40;;;;;;5079437;28;20970;-70
2021/05/21 11:01:27;;;;;;;12.73;2.67;;;20.00;39.90;;;;;;5093463;28;20431;-70
2021/05/21 11:04:09;;;;;;;12.00;2.50;;;20.50;37.20;;;;;;5093322;28;20427;-70
2021/05/21 11:06:52;;;;;;;21.23;4.10;;;21.30;37.90;;;;;;5093341;28;20519;-70
2021/05/21 11:09:22;;;;;;;14.40;2.70;;;22.30;35.60;;;;;;5093299;28;20811;-70
2021/05/21 11:12:08;;;;;;;13.27;2.30;;;22.80;34.20;;;;;;5093283;28;20432;-71
2021/05/21 11:14:38;;;;;;;14.67;2.40;;;22.70;32.90;;;;;;5093059;28;20575;-70
2021/05/21 11:17:21;;;;;;;20.03;3.47;;;22.70;31.80;;;;;;5092887;28;20972;-70
2021/05/21 11:19:50;;;;;;;40.93;5.37;;;23.10;33.20;;;;;;5092933;28;20847;-70
2021/05/21 11:22:23;;;;;;;23.03;4.00;;;23.10;32.10;;;;;;5092965;28;20987;-70
2021/05/21 11:24:54;;;;;;;11.10;2.73;;;23.30;32.30;;;;;;5093140;28;20471;-70
2021/05/21 11:27:21;;;;;;;17.30;3.13;;;23.70;30.80;;;;;;5093165;28;20424;-70
2021/05/21 11:29:48;;;;;;;12.30;2.30;;;23.90;30.40;;;;;;5093095;28;20443;-68
2021/05/21 11:32:21;;;;;;;9.30;2.20;;;24.00;30.50;;;;;;5093117;28;20428;-69
2021/05/21 11:34:48;;;;;;;17.43;2.67;;;23.60;31.90;;;;;;5092449;28;20487;-69
2021/05/21 11:37:16;;;;;;;6.93;2.07;;;23.70;31.20;;;;;;5093581;28;20435;-69
2021/05/21 11:39:43;;;;;;;11.90;2.83;;;22.90;31.90;;;;;;5093046;28;20420;-69
2021/05/21 11:42:10;;;;;;;16.73;2.60;;;22.50;32.80;;;;;;5092796;28;20497;-69
2021/05/21 11:44:37;;;;;;;14.13;2.87;;;22.60;32.50;;;;;;5092895;28;20471;-69
2021/05/21 11:47:05;;;;;;;31.30;3.93;;;22.30;32.00;;;;;;5092700;28;20432;-69
2021/05/21 11:49:31;;;;;;;18.73;3.47;;;21.90;33.70;;;;;;5095432;28;20442;-69
2021/05/21 11:52:01;;;;;;;15.70;3.13;;;21.30;34.70;;;;;;5096634;28;20800;-68
2021/05/21 11:54:28;;;;;;;19.63;3.40;;;21.00;35.50;;;;;;5095956;28;20505;-69
2021/05/21 11:56:56;;;;;;;21.50;3.60;;;21.40;36.10;;;;;;5096404;28;20428;-69
2021/05/21 11:59:24;;;;;;;10.37;2.30;;;21.50;34.80;;;;;;5096355;28;20436;-69
2021/05/21 12:01:52;;;;;;;16.30;3.03;;;21.50;36.10;;;;;;5096087;28;20531;-69
2021/05/21 12:04:20;;;;;;;11.80;2.93;;;22.00;37.20;;;;;;5096159;28;20466;-69
2021/05/21 12:06:49;;;;;;;23.33;4.10;;;23.10;36.00;;;;;;5095955;28;20497;-69
2021/05/21 12:09:18;;;;;;;23.33;3.60;;;22.90;32.40;;;;;;5096212;28;20450;-68
2021/05/21 12:11:44;;;;;;;16.43;3.77;;;22.90;32.70;;;;;;5096137;28;20489;-68
2021/05/21 12:14:12;;;;;;;22.57;3.30;;;23.30;32.20;;;;;;5095978;28;20902;-68
2021/05/21 12:16:41;;;;;;;13.80;2.33;;;24.10;31.30;;;;;;5095709;28;20949;-68
2021/05/21 12:19:09;;;;;;;14.20;2.10;;;24.30;31.10;;;;;;5095751;28;20902;-68
2021/05/21 12:21:37;;;;;;;17.20;3.40;;;24.50;29.70;;;;;;5095969;28;20444;-68
2021/05/21 12:24:04;;;;;;;14.43;3.30;;;24.90;28.90;;;;;;5095887;28;20428;-68
2021/05/21 12:26:32;;;;;;;19.50;3.90;;;25.50;29.80;;;;;;5095806;28;20440;-69
2021/05/21 12:29:00;;;;;;;15.00;2.77;;;25.50;28.40;;;;;;5095808;28;20773;-69
2021/05/21 12:31:28;;;;;;;18.20;3.83;;;25.30;28.30;;;;;;5095431;28;20589;-69
2021/05/21 12:33:56;;;;;;;33.70;4.70;;;24.90;29.20;;;;;;5095535;28;20475;-69
2021/05/21 12:36:25;;;;;;;16.60;3.80;;;24.20;29.50;;;;;;5095405;28;20792;-69
2021/05/21 12:38:53;;;;;;;14.27;2.80;;;24.10;30.10;;;;;;5095345;28;21011;-69
2021/05/21 12:41:23;;;;;;;11.83;2.63;;;24.70;29.40;;;;;;5095585;28;20424;-69
2021/05/21 12:43:50;;;;;;;14.33;3.50;;;24.90;27.80;;;;;;5095380;28;20479;-69
2021/05/21 12:46:17;;;;;;;16.27;3.13;;;25.10;28.60;;;;;;5095451;28;20444;-69
2021/05/21 12:48:45;;;;;;;24.07;3.43;;;24.10;28.00;;;;;;5095365;28;20440;-69